Home   Weather   Italy   Chieti   Past weeks
Flag for Italy

Past Weather in Chieti, Italy — Yesterday and Last 2 Weeks

Currently: 88 °F. Passing clouds. (Weather station: Pescara Airport, Italy). See more current weather

Past Weather in Chieti — Graph

°F

Chieti Temperature Yesterday

Maximum temperature yesterday: 88 °F (at 9:20 am)
Minimum temperature yesterday: 75 °F (at 3:20 am)
Average temperature yesterday: 81 °F

High & Low Weather Summary for the Past Weeks

 TemperatureHumidityPressure
High97 °F (Jul 16, 4:20 pm)100% (Jul 6, 10:50 pm)30.01 "Hg (Jul 6, 10:50 pm)
Low68 °F (Jul 8, 3:50 am)28% (Jul 17, 10:20 am)29.77 "Hg (Jul 13, 2:20 am)
Average83 °F65%29.90 "Hg
* Reported Jul 6 5:20 pm — Jul 21 5:50 pm, Chieti. Weather by CustomWeather, © 2024

Note: Actual official high and low records may vary slightly from our data, if they occured in-between our weather recording intervals... More about our weather records

Chieti Weather History for the Previous 24 Hours

Scroll right to see more
 ConditionsComfort  
Time TempWeatherWind HumidityBarometerVisibility
5:50 pm
Sun, Jul 21
88 °FPassing clouds.9 mph55%29.80 "HgN/A
5:20 pm88 °FScattered clouds.10 mph52%29.80 "HgN/A
4:50 pm88 °FPartly sunny.9 mph52%29.80 "HgN/A
4:20 pm86 °FScattered showers. Scattered clouds.10 mph59%29.80 "HgN/A
3:50 pm90 °FPassing clouds.12 mph52%29.80 "HgN/A
3:20 pm90 °FPassing clouds.12 mph52%29.80 "HgN/A
2:50 pm90 °FPassing clouds.12 mph52%29.80 "HgN/A
2:20 pm90 °FPassing clouds.12 mph49%29.80 "HgN/A
1:50 pm90 °FPassing clouds.12 mph46%29.80 "HgN/A
1:20 pm90 °FSunny.12 mph46%29.80 "Hg10 mi
12:50 pm88 °FPassing clouds.10 mph52%29.80 "HgN/A
12:20 pm88 °FPassing clouds.10 mph52%29.80 "HgN/A
11:50 am88 °FPassing clouds.10 mph55%29.80 "HgN/A
11:20 am90 °FPassing clouds.9 mph52%29.80 "HgN/A
10:50 am90 °FSunny.2 mph46%29.80 "Hg10 mi
10:20 am88 °FPassing clouds.3 mph52%29.83 "HgN/A
9:50 am86 °FPassing clouds.3 mph59%29.83 "HgN/A
9:20 am84 °FPassing clouds.5 mph62%29.83 "HgN/A
8:50 am82 °FPassing clouds.3 mph70%29.83 "HgN/A
8:20 am79 °FSunny.6 mph79%29.83 "Hg10 mi
7:50 am77 °FSunny.8 mph83%29.83 "Hg10 mi
7:20 am73 °FSunny.6 mph100%29.83 "Hg10 mi
6:50 am73 °FSunny.5 mph100%29.83 "Hg10 mi
6:20 am72 °FSunny.6 mph100%29.83 "Hg10 mi
5:50 am72 °FSunny.5 mph100%29.80 "Hg10 mi
5:20 am70 °FClear.6 mph100%29.80 "Hg10 mi
4:20 am72 °FClear.3 mph100%29.80 "Hg10 mi
3:50 am72 °FClear.6 mph100%29.80 "Hg10 mi
3:20 am73 °FClear.3 mph100%29.80 "Hg10 mi
2:50 am73 °FClear.1 mph100%29.80 "Hg10 mi
2:20 am75 °FClear.5 mph94%29.83 "Hg10 mi
1:50 am77 °FClear.3 mph79%29.83 "Hg10 mi
1:20 am77 °FClear.3 mph79%29.83 "Hg10 mi
12:50 am77 °FClear.3 mph83%29.83 "Hg10 mi
12:20 am79 °FClear.1 mph74%29.83 "Hg10 mi
11:50 pm
Sat, Jul 20
77 °FPassing clouds.3 mph83%29.83 "HgN/A
11:20 pm77 °FPassing clouds.3 mph83%29.83 "HgN/A
10:50 pm79 °FClear.3 mph74%29.83 "Hg10 mi
9:20 pm81 °FClear.2 mph70%29.80 "Hg10 mi
8:50 pm81 °FPassing clouds.3 mph70%29.80 "HgN/A
8:20 pm81 °FPassing clouds.6 mph70%29.80 "HgN/A
7:50 pm82 °FPassing clouds.8 mph70%29.80 "HgN/A
Weather by CustomWeather, © 2024

See weather overview